Livorno Express — VRLU9 — position and weather

sailwx.info

Track history (hours):
 
Tides and Currents Weather Stations Pressure Air Temp Water Temp Dewpoint Dewpoint Depression Visibility Wind Speed Wind Dir Waves Ship Positions

Livorno Express

Last reported at 2017-Oct-17 20:35 UTC. Time now 2017-Oct-18 20:24 UTC.
Position N 45°34' W 073°31'.

Length 228 m; draft 10.3 m.

Type: Ship (hazmat cat D). MMSI: 477486100.

Date/timePositionNaut miles runAvg speedWind from/ knotsBaromVisibWave heightAir tempDewpointWater temp
2017-Oct-17 20:35N 45°34' W 073°31'0 3.6
2017-Oct-17 20:30N 45°34' W 073°30'3 6.0
2017-Oct-17 19:58N 45°37' W 073°30'59611.9
2017-Oct-15 18:00N 47°24' W 059°18'32618.1 140 / 81019.010.8 12.0 7.918.0
2017-Oct-15 00:00N 45°42' W 051°48'7017.4 230 / 61021.0 5.4 10.0 7.9
2017-Oct-14 20:00N 45°24' W 050°12'4321.3 230 / 151026.0 5.4 10.0 7.9
2017-Oct-14 18:00N 45°18' W 049°12'61218.5 320 / 201025.010.8 10.0 5.615.0
2017-Oct-13 09:00N 44°18' W 034°54'   320 / 101019.0 5.4 21.019.4
2017-Oct-10 20:18N 42°17' W 009°58'66 3.4
2017-Oct-10 01:08N 41°21' W 009°13'320.7
2017-Oct-10 01:00N 41°19' W 009°14'1020.6
2017-Oct-10 00:30N 41°09' W 009°17'1020.6
2017-Oct-10 00:00N 40°59' W 009°19'1020.7
2017-Oct-09 23:30N 40°48' W 009°21'3120.6
2017-Oct-09 22:01N 40°18' W 009°30'020.0
2017-Oct-09 22:00N 40°18' W 009°30'1020.5
2017-Oct-09 21:30N 40°08' W 009°33'1020.2
2017-Oct-09 21:00N 39°59' W 009°37'1019.9
2017-Oct-09 20:30N 39°49' W 009°40'1019.9
2017-Oct-09 20:00N 39°39' W 009°43'1020.3
2017-Oct-09 19:30N 39°29' W 009°45'1020.1
2017-Oct-09 19:00N 39°19' W 009°47'1020.5
2017-Oct-09 18:30N 39°09' W 009°49'1020.4
2017-Oct-09 18:01N 38°59' W 009°51'1020.4
2017-Oct-09 17:31N 38°49' W 009°53'1020.3
2017-Oct-09 17:01N 38°39' W 009°51'1020.0
2017-Oct-09 16:31N 38°29' W 009°48'1020.1
2017-Oct-09 16:01N 38°19' W 009°45'1020.4
2017-Oct-09 15:31N 38°09' W 009°42'1020.3
2017-Oct-09 15:01N 37°60' W 009°39'1020.8
2017-Oct-09 14:31N 37°50' W 009°36'1020.8
2017-Oct-09 14:01N 37°39' W 009°33'1020.6
2017-Oct-09 13:31N 37°29' W 009°30'1020.2
2017-Oct-09 13:01N 37°20' W 009°27'1020.1
2017-Oct-09 12:31N 37°10' W 009°25'1019.9
2017-Oct-09 12:01N 37°00' W 009°22'918.8
2017-Oct-09 11:30N 36°52' W 009°16'1019.6
2017-Oct-09 11:01N 36°45' W 009°07'1019.9
2017-Oct-09 10:30N 36°41' W 008°56'1020.2
2017-Oct-09 10:01N 36°40' W 008°43'1020.5
2017-Oct-09 09:31N 36°35' W 008°32'1020.2
2017-Oct-09 09:01N 36°33' W 008°20'1020.3
2017-Oct-09 08:31N 36°30' W 008°07'1019.6
2017-Oct-09 08:01N 36°27' W 007°56'1020.3
2017-Oct-09 07:30N 36°24' W 007°44'1020.0
2017-Oct-09 07:01N 36°19' W 007°33'1020.0
2017-Oct-09 06:31N 36°15' W 007°22'  
Track history (hours):
 
Tides and Currents Weather Stations Pressure Air Temp Water Temp Dewpoint Dewpoint Depression Visibility Wind Speed Wind Dir Waves Ship Positions

Livorno Express

Last reported at 2017-Oct-17 20:35 UTC. Time now 2017-Oct-18 20:24 UTC.
Position N 45°34' W 073°31'.

Length 228 m; draft 10.3 m.

Type: Ship (hazmat cat D). MMSI: 477486100.

Date/timePositionNaut miles runAvg speedWind from/ knotsBaromVisibWave heightAir tempDewpointWater temp
2017-Oct-17 20:35N 45°34' W 073°31'0 3.6
2017-Oct-17 20:30N 45°34' W 073°30'3 6.0
2017-Oct-17 19:58N 45°37' W 073°30'59611.9
2017-Oct-15 18:00N 47°24' W 059°18'32618.1 140 / 81019.010.8 12.0 7.918.0
2017-Oct-15 00:00N 45°42' W 051°48'7017.4 230 / 61021.0 5.4 10.0 7.9
2017-Oct-14 20:00N 45°24' W 050°12'4321.3 230 / 151026.0 5.4 10.0 7.9
2017-Oct-14 18:00N 45°18' W 049°12'61218.5 320 / 201025.010.8 10.0 5.615.0
2017-Oct-13 09:00N 44°18' W 034°54'   320 / 101019.0 5.4 21.019.4
2017-Oct-10 20:18N 42°17' W 009°58'66 3.4
2017-Oct-10 01:08N 41°21' W 009°13'320.7
2017-Oct-10 01:00N 41°19' W 009°14'1020.6
2017-Oct-10 00:30N 41°09' W 009°17'1020.6
2017-Oct-10 00:00N 40°59' W 009°19'1020.7
2017-Oct-09 23:30N 40°48' W 009°21'3120.6
2017-Oct-09 22:01N 40°18' W 009°30'020.0
2017-Oct-09 22:00N 40°18' W 009°30'1020.5
2017-Oct-09 21:30N 40°08' W 009°33'1020.2
2017-Oct-09 21:00N 39°59' W 009°37'1019.9
2017-Oct-09 20:30N 39°49' W 009°40'1019.9
2017-Oct-09 20:00N 39°39' W 009°43'1020.3
2017-Oct-09 19:30N 39°29' W 009°45'1020.1
2017-Oct-09 19:00N 39°19' W 009°47'1020.5
2017-Oct-09 18:30N 39°09' W 009°49'1020.4
2017-Oct-09 18:01N 38°59' W 009°51'1020.4
2017-Oct-09 17:31N 38°49' W 009°53'1020.3
2017-Oct-09 17:01N 38°39' W 009°51'1020.0
2017-Oct-09 16:31N 38°29' W 009°48'1020.1
2017-Oct-09 16:01N 38°19' W 009°45'1020.4
2017-Oct-09 15:31N 38°09' W 009°42'1020.3
2017-Oct-09 15:01N 37°60' W 009°39'1020.8
2017-Oct-09 14:31N 37°50' W 009°36'1020.8
2017-Oct-09 14:01N 37°39' W 009°33'1020.6
2017-Oct-09 13:31N 37°29' W 009°30'1020.2
2017-Oct-09 13:01N 37°20' W 009°27'1020.1
2017-Oct-09 12:31N 37°10' W 009°25'1019.9
2017-Oct-09 12:01N 37°00' W 009°22'918.8
2017-Oct-09 11:30N 36°52' W 009°16'1019.6
2017-Oct-09 11:01N 36°45' W 009°07'1019.9
2017-Oct-09 10:30N 36°41' W 008°56'1020.2
2017-Oct-09 10:01N 36°40' W 008°43'1020.5
2017-Oct-09 09:31N 36°35' W 008°32'1020.2
2017-Oct-09 09:01N 36°33' W 008°20'1020.3
2017-Oct-09 08:31N 36°30' W 008°07'1019.6
2017-Oct-09 08:01N 36°27' W 007°56'1020.3
2017-Oct-09 07:30N 36°24' W 007°44'1020.0
2017-Oct-09 07:01N 36°19' W 007°33'1020.0
2017-Oct-09 06:31N 36°15' W 007°22'  

Dump ship's entire track history